»·PEaware :: N20791 M94-S36

N20791 :: M94-S36

FLIGHT INFORMATION

Flight Status: Arrived
Operator: Privately registered:
United States
More flights under this callsign
Pilot: Russell T. (852)
Aircraft: CESSNA 182 SKYLANE
(C182)
More flights by this aircraft type
Origin: M94 Desert Aire
United States
Destination: S36 Norman Grier Field
United States
More flights between these airports :: More routes between these airports
Route: PAPPAS V204 YKM V4 BLAKO
File this flight plan on PilotEdge
Remarks:
Altitude:
(Current/Filed)
10,000ft
Speed:
(Current/Filed)
120kts
Departed: 14-May-20 12:41 PM
Arrived: 14-May-20 01:41 PM
Distance/Time
Traveled:
98nm/0:59
Distance/Time
To Go:
Arrived

Flight Plot

Page will automatically refresh every two minutes.

Flight plan parsing failed; only flown route is shown


Map Options




Map Legend


Flown Route
Filed Route
Departure Airport
Arrival Airport
Navaid (VOR, NDB)
Fix

Horizontal Profiles

Position Reports

Time Latitude Longitude Heading Altitude Ground
Speed
14-May-20 12:33 46.689273 -119.926310 25 573ft 0kts
14-May-20 12:34 46.689274 -119.926310 25 573ft 0kts
14-May-20 12:35 46.689275 -119.926309 25 573ft 0kts
14-May-20 12:36 46.689276 -119.926308 25 573ft 0kts
14-May-20 12:37 46.689277 -119.926308 25 573ft 0kts
14-May-20 12:38 46.689278 -119.926307 25 573ft 0kts
14-May-20 12:39 46.689279 -119.926306 25 573ft 0kts
14-May-20 12:40 46.689399 -119.926169 94 573ft 0kts
14-May-20 12:41 46.687564 -119.920662 114 601ft 71kts
14-May-20 12:41 46.676503 -119.901445 152 1519ft 88kts
14-May-20 12:43 46.643698 -119.908411 176 2297ft 104kts
14-May-20 12:44 46.615416 -119.902721 170 2977ft 101kts
14-May-20 12:44 46.591336 -119.897123 170 3730ft 102kts
14-May-20 12:46 46.559416 -119.889651 170 4881ft 96kts
14-May-20 12:46 46.537922 -119.884651 171 5712ft 91kts
14-May-20 12:47 46.522819 -119.908402 243 6735ft 82kts
14-May-20 12:48 46.510893 -119.942802 243 7370ft 109kts
14-May-20 12:49 46.496002 -119.985717 243 8030ft 121kts
14-May-20 12:50 46.482589 -120.025291 250 9077ft 101kts
14-May-20 12:51 46.484709 -120.066496 287 9898ft 105kts
14-May-20 12:52 46.495576 -120.114043 288 9954ft 146kts
14-May-20 12:53 46.508498 -120.170879 288 9981ft 148kts
14-May-20 12:54 46.521424 -120.227899 288 9979ft 148kts
14-May-20 12:55 46.534325 -120.284966 288 9980ft 148kts
14-May-20 12:56 46.547207 -120.342102 288 9980ft 148kts
14-May-20 12:57 46.560042 -120.399186 288 9980ft 148kts
14-May-20 12:58 46.575035 -120.454859 305 9987ft 148kts
14-May-20 12:59 46.598796 -120.504227 304 9983ft 149kts
14-May-20 13:00 46.622458 -120.553644 304 9981ft 148kts
14-May-20 13:01 46.646043 -120.603086 304 9980ft 148kts
14-May-20 13:02 46.669638 -120.652593 304 9980ft 148kts
14-May-20 13:03 46.693089 -120.702023 304 10001ft 148kts
14-May-20 13:04 46.716981 -120.752350 304 10000ft 152kts
14-May-20 13:05 46.741053 -120.803105 304 10000ft 152kts
14-May-20 13:06 46.765228 -120.854156 304 9999ft 152kts
14-May-20 13:07 46.789272 -120.905058 304 10000ft 152kts
14-May-20 13:08 46.813323 -120.956078 304 10000ft 152kts
14-May-20 13:09 46.837336 -121.007102 304 10000ft 152kts
14-May-20 13:10 46.861347 -121.058196 304 10000ft 152kts
14-May-20 13:11 46.885297 -121.109314 304 10000ft 152kts
14-May-20 13:12 46.909250 -121.160509 304 10000ft 152kts
14-May-20 13:13 46.933161 -121.211708 304 10000ft 152kts
14-May-20 13:14 46.957054 -121.262960 304 10000ft 152kts
14-May-20 13:15 46.980966 -121.314350 304 10000ft 152kts
14-May-20 13:16 47.004790 -121.365644 304 10000ft 152kts
14-May-20 13:17 47.028669 -121.417155 304 10000ft 152kts
14-May-20 13:18 47.052476 -121.468603 304 10000ft 152kts
14-May-20 13:19 47.076302 -121.520185 304 10000ft 152kts
14-May-20 13:20 47.100031 -121.571652 304 9999ft 152kts
14-May-20 13:21 47.123728 -121.623144 303 10000ft 152kts
14-May-20 13:22 47.147482 -121.674904 303 10000ft 152kts
14-May-20 13:23 47.171167 -121.726585 303 10000ft 152kts
14-May-20 13:24 47.194821 -121.778292 303 10000ft 152kts
14-May-20 13:25 47.218724 -121.830641 303 9700ft 161kts
14-May-20 13:26 47.242365 -121.882478 303 8304ft 159kts
14-May-20 13:27 47.260615 -121.940251 247 6577ft 158kts
14-May-20 13:28 47.232056 -121.927981 80 4927ft 147kts
14-May-20 13:29 47.259160 -121.922564 316 4547ft 128kts
14-May-20 13:30 47.279918 -121.964863 303 4487ft 109kts
14-May-20 13:31 47.297419 -122.003668 303 3883ft 122kts
14-May-20 13:32 47.316204 -122.045158 303 2880ft 122kts
14-May-20 13:33 47.331594 -122.085012 293 2492ft 96kts
14-May-20 13:34 47.345706 -122.113546 355 2353ft 97kts
14-May-20 13:35 47.370363 -122.098160 33 1865ft 108kts
14-May-20 13:36 47.393171 -122.097708 290 1491ft 68kts
14-May-20 13:37 47.390804 -122.126511 248 1503ft 83kts
14-May-20 13:38 47.374483 -122.118575 114 1500ft 86kts
14-May-20 13:39 47.355972 -122.105950 180 984ft 72kts
14-May-20 13:40 47.338462 -122.103802 170 469ft 36kts
14-May-20 13:41 47.334006 -122.102784 176 469ft 3kts
14-May-20 13:42 47.335428 -122.102597 352 469ft 17kts
14-May-20 13:43 47.337392 -122.103081 347 469ft 11kts
14-May-20 13:44 47.340060 -122.103583 25 469ft 0kts
14-May-20 13:45 47.340135 -122.103533 23 469ft 0kts
14-May-20 13:46 47.340136 -122.103533 23 469ft 0kts
14-May-20 13:47 47.340137 -122.103532 23 469ft 0kts
14-May-20 13:48 47.340138 -122.103531 23 469ft 0kts
14-May-20 13:49 47.340139 -122.103530 23 469ft 0kts
14-May-20 13:50 47.340141 -122.103530 23 469ft 0kts
14-May-20 13:51 47.340142 -122.103529 23 469ft 0kts
14-May-20 13:52 47.340143 -122.103528 23 469ft 0kts
14-May-20 13:53 47.340144 -122.103527 23 469ft 0kts
14-May-20 13:54 47.340145 -122.103527 23 469ft 0kts

Navigation Log

Ident Type
Flight plan parsing failed, navigation log unavailable